sensor_id;sensor_type;location;lat;lon;timestamp;temperature;humidity
21928;DHT22;11128;51.096;17.190;2023-07-31T00:00:07;19.70;1.00
21928;DHT22;11128;51.096;17.190;2023-07-31T00:05:10;19.60;1.00
21928;DHT22;11128;51.096;17.190;2023-07-31T00:10:11;19.60;1.00
21928;DHT22;11128;51.096;17.190;2023-07-31T00:15:14;19.60;1.00
21928;DHT22;11128;51.096;17.190;2023-07-31T00:20:15;19.60;1.00
21928;DHT22;11128;51.096;17.190;2023-07-31T00:25:16;19.60;1.00
21928;DHT22;11128;51.096;17.190;2023-07-31T00:30:18;19.60;1.00
21928;DHT22;11128;51.096;17.190;2023-07-31T00:35:19;19.60;1.00
21928;DHT22;11128;51.096;17.190;2023-07-31T00:40:20;19.60;1.00
21928;DHT22;11128;51.096;17.190;2023-07-31T00:45:23;19.60;1.00
21928;DHT22;11128;51.096;17.190;2023-07-31T00:50:25;19.50;1.00
21928;DHT22;11128;51.096;17.190;2023-07-31T00:55:28;19.50;1.00
21928;DHT22;11128;51.096;17.190;2023-07-31T01:00:29;19.50;1.00
21928;DHT22;11128;51.096;17.190;2023-07-31T01:05:41;19.50;1.00
21928;DHT22;11128;51.096;17.190;2023-07-31T01:10:53;19.40;1.00
21928;DHT22;11128;51.096;17.190;2023-07-31T01:15:55;19.40;1.00
21928;DHT22;11128;51.096;17.190;2023-07-31T01:21:07;19.40;1.00
21928;DHT22;11128;51.096;17.190;2023-07-31T01:26:26;19.40;1.00
21928;DHT22;11128;51.096;17.190;2023-07-31T01:31:29;19.30;1.00
21928;DHT22;11128;51.096;17.190;2023-07-31T01:36:31;19.30;1.00
21928;DHT22;11128;51.096;17.190;2023-07-31T01:41:33;19.20;1.00
21928;DHT22;11128;51.096;17.190;2023-07-31T01:46:34;19.20;1.00
21928;DHT22;11128;51.096;17.190;2023-07-31T01:51:35;19.20;1.00
21928;DHT22;11128;51.096;17.190;2023-07-31T01:56:36;19.20;1.00
21928;DHT22;11128;51.096;17.190;2023-07-31T02:01:38;19.10;1.00
21928;DHT22;11128;51.096;17.190;2023-07-31T02:06:39;19.20;1.00
21928;DHT22;11128;51.096;17.190;2023-07-31T02:11:40;19.10;1.00
21928;DHT22;11128;51.096;17.190;2023-07-31T02:16:42;19.10;1.00
21928;DHT22;11128;51.096;17.190;2023-07-31T02:21:43;19.10;1.00
21928;DHT22;11128;51.096;17.190;2023-07-31T02:26:45;19.10;1.00
21928;DHT22;11128;51.096;17.190;2023-07-31T02:31:48;19.10;1.00
21928;DHT22;11128;51.096;17.190;2023-07-31T02:36:50;19.10;1.00
21928;DHT22;11128;51.096;17.190;2023-07-31T02:41:51;19.00;1.00
21928;DHT22;11128;51.096;17.190;2023-07-31T02:46:52;19.00;1.00
21928;DHT22;11128;51.096;17.190;2023-07-31T02:51:54;19.00;1.00
21928;DHT22;11128;51.096;17.190;2023-07-31T02:56:55;19.00;99.90
21928;DHT22;11128;51.096;17.190;2023-07-31T03:01:56;19.00;99.90
21928;DHT22;11128;51.096;17.190;2023-07-31T03:06:58;19.00;99.90
21928;DHT22;11128;51.096;17.190;2023-07-31T03:11:59;18.90;99.90
21928;DHT22;11128;51.096;17.190;2023-07-31T03:17:00;18.90;99.90
21928;DHT22;11128;51.096;17.190;2023-07-31T03:22:01;18.90;99.90
21928;DHT22;11128;51.096;17.190;2023-07-31T03:27:03;18.90;99.90
21928;DHT22;11128;51.096;17.190;2023-07-31T03:32:05;18.90;99.90
21928;DHT22;11128;51.096;17.190;2023-07-31T03:37:06;18.90;99.90
21928;DHT22;11128;51.096;17.190;2023-07-31T03:42:07;18.90;99.90
21928;DHT22;11128;51.096;17.190;2023-07-31T03:47:08;18.80;99.90
21928;DHT22;11128;51.096;17.190;2023-07-31T03:52:10;18.80;99.90
21928;DHT22;11128;51.096;17.190;2023-07-31T03:57:11;18.70;99.90
21928;DHT22;11128;51.096;17.190;2023-07-31T04:02:12;18.80;99.90
21928;DHT22;11128;51.096;17.190;2023-07-31T04:07:15;18.80;99.90
21928;DHT22;11128;51.096;17.190;2023-07-31T04:12:16;18.80;99.90
21928;DHT22;11128;51.096;17.190;2023-07-31T04:17:18;18.70;99.90
21928;DHT22;11128;51.096;17.190;2023-07-31T04:22:19;18.70;99.90
21928;DHT22;11128;51.096;17.190;2023-07-31T04:27:20;18.70;99.90
21928;DHT22;11128;51.096;17.190;2023-07-31T04:32:22;18.60;99.90
21928;DHT22;11128;51.096;17.190;2023-07-31T04:37:23;18.70;99.90
21928;DHT22;11128;51.096;17.190;2023-07-31T04:42:24;18.70;99.90
21928;DHT22;11128;51.096;17.190;2023-07-31T04:47:26;18.70;99.90
21928;DHT22;11128;51.096;17.190;2023-07-31T04:52:27;18.60;99.90
21928;DHT22;11128;51.096;17.190;2023-07-31T04:57:28;18.70;99.90
21928;DHT22;11128;51.096;17.190;2023-07-31T05:02:30;18.60;99.90
21928;DHT22;11128;51.096;17.190;2023-07-31T05:07:31;18.50;99.90
21928;DHT22;11128;51.096;17.190;2023-07-31T05:12:32;18.40;1.00
21928;DHT22;11128;51.096;17.190;2023-07-31T05:17:33;18.40;1.00
21928;DHT22;11128;51.096;17.190;2023-07-31T05:22:34;18.40;1.00
21928;DHT22;11128;51.096;17.190;2023-07-31T05:27:36;18.50;1.00
21928;DHT22;11128;51.096;17.190;2023-07-31T05:32:40;18.50;1.00
21928;DHT22;11128;51.096;17.190;2023-07-31T05:37:41;18.60;1.00
21928;DHT22;11128;51.096;17.190;2023-07-31T05:42:42;18.60;99.90
21928;DHT22;11128;51.096;17.190;2023-07-31T05:47:44;18.60;99.90
21928;DHT22;11128;51.096;17.190;2023-07-31T05:52:45;18.60;99.90
21928;DHT22;11128;51.096;17.190;2023-07-31T05:57:47;18.70;99.90
21928;DHT22;11128;51.096;17.190;2023-07-31T06:02:48;18.80;99.90
21928;DHT22;11128;51.096;17.190;2023-07-31T06:07:50;18.90;99.90
21928;DHT22;11128;51.096;17.190;2023-07-31T06:12:51;18.90;99.90
21928;DHT22;11128;51.096;17.190;2023-07-31T06:17:53;18.90;99.90
21928;DHT22;11128;51.096;17.190;2023-07-31T06:22:54;19.00;99.90
21928;DHT22;11128;51.096;17.190;2023-07-31T06:27:55;19.10;99.90
21928;DHT22;11128;51.096;17.190;2023-07-31T06:32:57;19.20;99.90
21928;DHT22;11128;51.096;17.190;2023-07-31T06:37:58;19.20;99.90
21928;DHT22;11128;51.096;17.190;2023-07-31T06:43:00;19.20;99.90
21928;DHT22;11128;51.096;17.190;2023-07-31T06:48:07;19.30;99.90
21928;DHT22;11128;51.096;17.190;2023-07-31T06:53:09;19.30;99.90
21928;DHT22;11128;51.096;17.190;2023-07-31T06:58:10;19.40;99.90
21928;DHT22;11128;51.096;17.190;2023-07-31T07:03:14;19.50;99.90
21928;DHT22;11128;51.096;17.190;2023-07-31T07:08:16;19.60;99.90
21928;DHT22;11128;51.096;17.190;2023-07-31T07:13:18;19.70;99.90
21928;DHT22;11128;51.096;17.190;2023-07-31T07:18:19;19.80;99.90
21928;DHT22;11128;51.096;17.190;2023-07-31T07:23:22;19.80;99.90
21928;DHT22;11128;51.096;17.190;2023-07-31T07:28:23;19.90;99.90
21928;DHT22;11128;51.096;17.190;2023-07-31T07:33:24;19.90;99.90
21928;DHT22;11128;51.096;17.190;2023-07-31T07:38:26;19.90;99.90
21928;DHT22;11128;51.096;17.190;2023-07-31T07:43:27;20.00;99.90
21928;DHT22;11128;51.096;17.190;2023-07-31T07:48:28;20.10;99.90
21928;DHT22;11128;51.096;17.190;2023-07-31T07:53:30;20.20;99.90
21928;DHT22;11128;51.096;17.190;2023-07-31T07:58:31;20.20;99.90
21928;DHT22;11128;51.096;17.190;2023-07-31T08:03:32;20.40;99.90
21928;DHT22;11128;51.096;17.190;2023-07-31T08:08:34;20.50;96.30
21928;DHT22;11128;51.096;17.190;2023-07-31T08:13:36;20.80;9.30
21928;DHT22;11128;51.096;17.190;2023-07-31T08:18:40;21.00;1.00
21928;DHT22;11128;51.096;17.190;2023-07-31T08:23:43;21.30;1.00
21928;DHT22;11128;51.096;17.190;2023-07-31T08:28:44;21.50;1.00
21928;DHT22;11128;51.096;17.190;2023-07-31T08:33:46;21.70;1.00
21928;DHT22;11128;51.096;17.190;2023-07-31T08:38:47;22.00;1.00
21928;DHT22;11128;51.096;17.190;2023-07-31T08:43:52;22.20;1.00
21928;DHT22;11128;51.096;17.190;2023-07-31T08:48:55;22.30;1.00
21928;DHT22;11128;51.096;17.190;2023-07-31T08:53:56;22.40;1.00
21928;DHT22;11128;51.096;17.190;2023-07-31T08:59:00;22.40;1.00
21928;DHT22;11128;51.096;17.190;2023-07-31T09:04:04;22.30;1.00
21928;DHT22;11128;51.096;17.190;2023-07-31T09:09:06;22.20;1.00
21928;DHT22;11128;51.096;17.190;2023-07-31T09:14:08;22.00;1.00
21928;DHT22;11128;51.096;17.190;2023-07-31T09:19:10;21.80;1.00
21928;DHT22;11128;51.096;17.190;2023-07-31T09:24:31;21.60;1.00
21928;DHT22;11128;51.096;17.190;2023-07-31T09:29:32;21.50;1.00
21928;DHT22;11128;51.096;17.190;2023-07-31T09:34:38;21.50;1.00
21928;DHT22;11128;51.096;17.190;2023-07-31T09:39:46;21.50;1.00
21928;DHT22;11128;51.096;17.190;2023-07-31T09:44:48;21.50;1.00
21928;DHT22;11128;51.096;17.190;2023-07-31T09:49:49;21.40;1.00
21928;DHT22;11128;51.096;17.190;2023-07-31T09:54:50;21.40;1.00
21928;DHT22;11128;51.096;17.190;2023-07-31T09:59:52;21.20;1.00
21928;DHT22;11128;51.096;17.190;2023-07-31T10:04:57;21.10;1.00
21928;DHT22;11128;51.096;17.190;2023-07-31T10:10:02;21.00;1.00
21928;DHT22;11128;51.096;17.190;2023-07-31T10:15:05;21.00;1.00
21928;DHT22;11128;51.096;17.190;2023-07-31T10:20:07;21.00;1.00
21928;DHT22;11128;51.096;17.190;2023-07-31T10:25:09;20.90;1.00
21928;DHT22;11128;51.096;17.190;2023-07-31T10:30:18;20.90;1.00
21928;DHT22;11128;51.096;17.190;2023-07-31T10:35:20;20.90;1.00
21928;DHT22;11128;51.096;17.190;2023-07-31T10:40:27;20.90;1.00
21928;DHT22;11128;51.096;17.190;2023-07-31T10:50:38;21.20;1.00
21928;DHT22;11128;51.096;17.190;2023-07-31T10:55:41;21.30;1.00
21928;DHT22;11128;51.096;17.190;2023-07-31T11:00:44;21.20;1.00
21928;DHT22;11128;51.096;17.190;2023-07-31T11:11:13;21.20;1.00
21928;DHT22;11128;51.096;17.190;2023-07-31T11:16:14;21.20;1.00
21928;DHT22;11128;51.096;17.190;2023-07-31T11:21:18;21.40;1.00
21928;DHT22;11128;51.096;17.190;2023-07-31T11:26:20;21.50;1.00
21928;DHT22;11128;51.096;17.190;2023-07-31T11:31:21;21.70;1.00
21928;DHT22;11128;51.096;17.190;2023-07-31T11:36:23;21.90;1.00
21928;DHT22;11128;51.096;17.190;2023-07-31T11:41:24;22.10;1.00
21928;DHT22;11128;51.096;17.190;2023-07-31T11:46:25;22.30;1.00
21928;DHT22;11128;51.096;17.190;2023-07-31T11:51:27;22.60;1.00
21928;DHT22;11128;51.096;17.190;2023-07-31T11:56:30;22.80;1.00
21928;DHT22;11128;51.096;17.190;2023-07-31T12:01:32;22.90;1.00
21928;DHT22;11128;51.096;17.190;2023-07-31T12:06:37;22.70;1.00
21928;DHT22;11128;51.096;17.190;2023-07-31T12:11:45;22.80;1.00
21928;DHT22;11128;51.096;17.190;2023-07-31T12:16:46;22.90;1.00
21928;DHT22;11128;51.096;17.190;2023-07-31T12:21:48;23.10;1.00
21928;DHT22;11128;51.096;17.190;2023-07-31T12:26:50;23.30;1.00
21928;DHT22;11128;51.096;17.190;2023-07-31T12:31:51;23.40;1.00
21928;DHT22;11128;51.096;17.190;2023-07-31T12:36:53;23.50;1.00
21928;DHT22;11128;51.096;17.190;2023-07-31T12:41:55;23.40;1.00
21928;DHT22;11128;51.096;17.190;2023-07-31T12:46:56;23.50;1.00
21928;DHT22;11128;51.096;17.190;2023-07-31T12:51:58;23.50;1.00
21928;DHT22;11128;51.096;17.190;2023-07-31T12:56:59;23.60;1.00
21928;DHT22;11128;51.096;17.190;2023-07-31T13:02:01;23.60;1.00
21928;DHT22;11128;51.096;17.190;2023-07-31T13:07:02;23.60;1.00
21928;DHT22;11128;51.096;17.190;2023-07-31T13:12:04;23.60;1.00
21928;DHT22;11128;51.096;17.190;2023-07-31T13:17:25;23.40;1.00
21928;DHT22;11128;51.096;17.190;2023-07-31T13:22:27;23.30;1.00
21928;DHT22;11128;51.096;17.190;2023-07-31T13:27:28;23.30;1.00
21928;DHT22;11128;51.096;17.190;2023-07-31T13:32:29;23.40;1.00
21928;DHT22;11128;51.096;17.190;2023-07-31T13:37:31;23.40;1.00
21928;DHT22;11128;51.096;17.190;2023-07-31T13:42:32;23.50;1.00
21928;DHT22;11128;51.096;17.190;2023-07-31T13:47:34;23.60;1.00
21928;DHT22;11128;51.096;17.190;2023-07-31T13:52:36;23.70;1.00
21928;DHT22;11128;51.096;17.190;2023-07-31T13:57:37;23.70;1.00
21928;DHT22;11128;51.096;17.190;2023-07-31T14:02:39;23.70;1.00
21928;DHT22;11128;51.096;17.190;2023-07-31T14:07:40;23.50;1.00
21928;DHT22;11128;51.096;17.190;2023-07-31T14:12:42;23.50;1.00
21928;DHT22;11128;51.096;17.190;2023-07-31T14:17:43;23.40;1.00
21928;DHT22;11128;51.096;17.190;2023-07-31T14:22:44;23.30;1.00
21928;DHT22;11128;51.096;17.190;2023-07-31T14:27:46;23.20;1.00
21928;DHT22;11128;51.096;17.190;2023-07-31T14:32:47;23.20;1.00
21928;DHT22;11128;51.096;17.190;2023-07-31T14:37:48;23.20;1.00
21928;DHT22;11128;51.096;17.190;2023-07-31T14:42:50;23.20;1.00
21928;DHT22;11128;51.096;17.190;2023-07-31T14:47:51;23.20;1.00
21928;DHT22;11128;51.096;17.190;2023-07-31T14:52:52;23.20;1.00
21928;DHT22;11128;51.096;17.190;2023-07-31T14:57:53;23.10;1.00
21928;DHT22;11128;51.096;17.190;2023-07-31T15:02:55;23.00;1.00
21928;DHT22;11128;51.096;17.190;2023-07-31T15:07:56;22.90;1.00
21928;DHT22;11128;51.096;17.190;2023-07-31T15:12:58;22.80;1.00
21928;DHT22;11128;51.096;17.190;2023-07-31T15:18:00;22.80;1.00
21928;DHT22;11128;51.096;17.190;2023-07-31T15:23:01;22.80;1.00
21928;DHT22;11128;51.096;17.190;2023-07-31T15:28:03;22.80;1.00
21928;DHT22;11128;51.096;17.190;2023-07-31T15:33:04;22.90;1.00
21928;DHT22;11128;51.096;17.190;2023-07-31T15:38:06;22.90;1.00
21928;DHT22;11128;51.096;17.190;2023-07-31T15:43:07;22.90;1.00
21928;DHT22;11128;51.096;17.190;2023-07-31T15:48:09;22.90;1.00
21928;DHT22;11128;51.096;17.190;2023-07-31T15:53:10;22.90;1.00
21928;DHT22;11128;51.096;17.190;2023-07-31T15:58:12;22.90;1.00
21928;DHT22;11128;51.096;17.190;2023-07-31T16:03:13;22.90;1.00
21928;DHT22;11128;51.096;17.190;2023-07-31T16:08:14;22.90;1.00
21928;DHT22;11128;51.096;17.190;2023-07-31T16:13:16;23.00;1.00
21928;DHT22;11128;51.096;17.190;2023-07-31T16:18:17;22.90;1.00
21928;DHT22;11128;51.096;17.190;2023-07-31T16:23:19;22.90;1.00
21928;DHT22;11128;51.096;17.190;2023-07-31T16:28:20;22.90;1.00
21928;DHT22;11128;51.096;17.190;2023-07-31T16:33:22;23.00;1.00
21928;DHT22;11128;51.096;17.190;2023-07-31T16:38:23;22.90;1.00
21928;DHT22;11128;51.096;17.190;2023-07-31T16:43:25;22.90;1.00
21928;DHT22;11128;51.096;17.190;2023-07-31T16:48:27;22.80;1.00
21928;DHT22;11128;51.096;17.190;2023-07-31T16:53:28;22.80;1.00
21928;DHT22;11128;51.096;17.190;2023-07-31T16:58:29;22.80;1.00
21928;DHT22;11128;51.096;17.190;2023-07-31T17:03:31;22.80;1.00
21928;DHT22;11128;51.096;17.190;2023-07-31T17:08:32;22.80;1.00
21928;DHT22;11128;51.096;17.190;2023-07-31T17:13:34;22.70;1.00
21928;DHT22;11128;51.096;17.190;2023-07-31T17:18:35;22.70;1.00
21928;DHT22;11128;51.096;17.190;2023-07-31T17:23:37;22.70;1.00
21928;DHT22;11128;51.096;17.190;2023-07-31T17:28:38;22.70;1.00
21928;DHT22;11128;51.096;17.190;2023-07-31T17:33:40;22.60;1.00
21928;DHT22;11128;51.096;17.190;2023-07-31T17:38:41;22.60;1.00
21928;DHT22;11128;51.096;17.190;2023-07-31T17:43:43;22.60;1.00
21928;DHT22;11128;51.096;17.190;2023-07-31T17:48:44;22.50;1.00
21928;DHT22;11128;51.096;17.190;2023-07-31T17:53:47;22.50;1.00
21928;DHT22;11128;51.096;17.190;2023-07-31T17:58:48;22.50;1.00
21928;DHT22;11128;51.096;17.190;2023-07-31T18:03:50;22.40;1.00
21928;DHT22;11128;51.096;17.190;2023-07-31T18:08:51;22.40;1.00
21928;DHT22;11128;51.096;17.190;2023-07-31T18:13:53;22.30;1.00
21928;DHT22;11128;51.096;17.190;2023-07-31T18:18:55;22.30;1.00
21928;DHT22;11128;51.096;17.190;2023-07-31T18:23:56;22.30;1.00
21928;DHT22;11128;51.096;17.190;2023-07-31T18:28:57;22.20;1.00
21928;DHT22;11128;51.096;17.190;2023-07-31T18:33:59;22.20;1.00
21928;DHT22;11128;51.096;17.190;2023-07-31T18:39:00;22.10;1.00
21928;DHT22;11128;51.096;17.190;2023-07-31T18:44:01;22.10;1.00
21928;DHT22;11128;51.096;17.190;2023-07-31T18:49:03;22.00;1.00
21928;DHT22;11128;51.096;17.190;2023-07-31T18:54:05;22.00;1.00
21928;DHT22;11128;51.096;17.190;2023-07-31T18:59:07;21.90;1.00
21928;DHT22;11128;51.096;17.190;2023-07-31T19:04:08;21.90;1.00
21928;DHT22;11128;51.096;17.190;2023-07-31T19:09:11;21.80;1.00
21928;DHT22;11128;51.096;17.190;2023-07-31T19:14:13;21.80;1.00
21928;DHT22;11128;51.096;17.190;2023-07-31T19:19:14;21.70;1.00
21928;DHT22;11128;51.096;17.190;2023-07-31T19:24:16;21.70;1.00
21928;DHT22;11128;51.096;17.190;2023-07-31T19:29:17;21.70;1.00
21928;DHT22;11128;51.096;17.190;2023-07-31T19:34:18;21.70;1.00
21928;DHT22;11128;51.096;17.190;2023-07-31T19:39:20;21.70;1.00
21928;DHT22;11128;51.096;17.190;2023-07-31T19:44:21;21.60;1.00
21928;DHT22;11128;51.096;17.190;2023-07-31T19:49:22;21.50;1.00
21928;DHT22;11128;51.096;17.190;2023-07-31T19:54:24;21.40;1.00
21928;DHT22;11128;51.096;17.190;2023-07-31T19:59:25;21.40;1.00
21928;DHT22;11128;51.096;17.190;2023-07-31T20:04:27;21.30;1.00
21928;DHT22;11128;51.096;17.190;2023-07-31T20:09:28;21.30;1.00
21928;DHT22;11128;51.096;17.190;2023-07-31T20:14:29;21.20;1.00
21928;DHT22;11128;51.096;17.190;2023-07-31T20:19:31;21.20;1.00
21928;DHT22;11128;51.096;17.190;2023-07-31T20:24:33;21.20;1.00
21928;DHT22;11128;51.096;17.190;2023-07-31T20:29:34;21.20;1.00
21928;DHT22;11128;51.096;17.190;2023-07-31T20:34:35;21.20;1.00
21928;DHT22;11128;51.096;17.190;2023-07-31T20:39:37;21.10;1.00
21928;DHT22;11128;51.096;17.190;2023-07-31T20:44:38;21.10;1.00
21928;DHT22;11128;51.096;17.190;2023-07-31T20:49:40;21.10;1.00
21928;DHT22;11128;51.096;17.190;2023-07-31T20:54:41;21.00;1.00
21928;DHT22;11128;51.096;17.190;2023-07-31T20:59:43;21.00;1.00
21928;DHT22;11128;51.096;17.190;2023-07-31T21:04:44;21.00;1.00
21928;DHT22;11128;51.096;17.190;2023-07-31T21:09:45;20.90;1.00
21928;DHT22;11128;51.096;17.190;2023-07-31T21:14:49;20.90;1.00
21928;DHT22;11128;51.096;17.190;2023-07-31T21:19:50;20.90;4.70
21928;DHT22;11128;51.096;17.190;2023-07-31T21:24:52;20.90;1.00
21928;DHT22;11128;51.096;17.190;2023-07-31T21:29:53;20.90;8.50
21928;DHT22;11128;51.096;17.190;2023-07-31T21:34:55;20.90;6.70
21928;DHT22;11128;51.096;17.190;2023-07-31T21:39:56;20.90;7.30
21928;DHT22;11128;51.096;17.190;2023-07-31T21:44:57;20.80;11.70
21928;DHT22;11128;51.096;17.190;2023-07-31T21:49:59;20.80;9.80
21928;DHT22;11128;51.096;17.190;2023-07-31T21:55:00;20.80;11.50
21928;DHT22;11128;51.096;17.190;2023-07-31T22:00:06;20.80;13.90
21928;DHT22;11128;51.096;17.190;2023-07-31T22:05:07;20.70;18.50
21928;DHT22;11128;51.096;17.190;2023-07-31T22:10:09;20.70;26.30
21928;DHT22;11128;51.096;17.190;2023-07-31T22:15:10;20.60;40.70
21928;DHT22;11128;51.096;17.190;2023-07-31T22:20:14;20.60;58.10
21928;DHT22;11128;51.096;17.190;2023-07-31T22:25:16;20.60;71.60
21928;DHT22;11128;51.096;17.190;2023-07-31T22:30:17;20.60;75.60
21928;DHT22;11128;51.096;17.190;2023-07-31T22:35:18;20.60;87.50
21928;DHT22;11128;51.096;17.190;2023-07-31T22:40:20;20.60;99.90
21928;DHT22;11128;51.096;17.190;2023-07-31T22:45:21;20.60;93.10
21928;DHT22;11128;51.096;17.190;2023-07-31T22:50:22;20.60;90.40
21928;DHT22;11128;51.096;17.190;2023-07-31T22:55:24;20.50;93.70
21928;DHT22;11128;51.096;17.190;2023-07-31T23:00:25;20.50;96.60
21928;DHT22;11128;51.096;17.190;2023-07-31T23:05:26;20.50;93.50
21928;DHT22;11128;51.096;17.190;2023-07-31T23:10:28;20.40;94.50
21928;DHT22;11128;51.096;17.190;2023-07-31T23:15:29;20.40;92.20
21928;DHT22;11128;51.096;17.190;2023-07-31T23:20:30;20.40;93.00
21928;DHT22;11128;51.096;17.190;2023-07-31T23:25:35;20.40;98.30
21928;DHT22;11128;51.096;17.190;2023-07-31T23:30:37;20.40;95.80
21928;DHT22;11128;51.096;17.190;2023-07-31T23:35:38;20.40;97.80
21928;DHT22;11128;51.096;17.190;2023-07-31T23:40:39;20.30;99.00
21928;DHT22;11128;51.096;17.190;2023-07-31T23:45:41;20.30;99.90
21928;DHT22;11128;51.096;17.190;2023-07-31T23:50:42;20.30;99.90
21928;DHT22;11128;51.096;17.190;2023-07-31T23:55:43;20.30;99.90
